sensor_id;sensor_type;location;lat;lon;timestamp;temperature;humidity
13659;DHT22;6902;52.158;11.574;2023-06-22T11:15:15;29.80;99.90
13659;DHT22;6902;52.158;11.574;2023-06-22T11:17:44;29.80;99.90
13659;DHT22;6902;52.158;11.574;2023-06-22T11:20:13;29.90;99.90
13659;DHT22;6902;52.158;11.574;2023-06-22T11:22:42;29.90;99.90
13659;DHT22;6902;52.158;11.574;2023-06-22T11:25:13;29.90;99.90
13659;DHT22;6902;52.158;11.574;2023-06-22T11:27:42;29.90;99.90
13659;DHT22;6902;52.158;11.574;2023-06-22T11:30:11;30.00;99.90
13659;DHT22;6902;52.158;11.574;2023-06-22T11:32:40;30.00;99.90
13659;DHT22;6902;52.158;11.574;2023-06-22T11:35:09;29.90;99.90
13659;DHT22;6902;52.158;11.574;2023-06-22T11:37:37;30.00;99.90
13659;DHT22;6902;52.158;11.574;2023-06-22T11:40:09;30.10;99.90
13659;DHT22;6902;52.158;11.574;2023-06-22T11:42:41;30.10;99.90
13659;DHT22;6902;52.158;11.574;2023-06-22T11:45:10;30.10;99.90
13659;DHT22;6902;52.158;11.574;2023-06-22T11:47:39;29.90;99.90
13659;DHT22;6902;52.158;11.574;2023-06-22T11:50:09;29.60;99.90
13659;DHT22;6902;52.158;11.574;2023-06-22T11:52:38;29.70;99.90
13659;DHT22;6902;52.158;11.574;2023-06-22T11:55:07;29.70;99.90
13659;DHT22;6902;52.158;11.574;2023-06-22T11:57:37;30.00;99.90
13659;DHT22;6902;52.158;11.574;2023-06-22T12:00:10;30.10;99.90
13659;DHT22;6902;52.158;11.574;2023-06-22T12:02:43;30.20;99.90
13659;DHT22;6902;52.158;11.574;2023-06-22T12:05:12;30.40;99.90
13659;DHT22;6902;52.158;11.574;2023-06-22T12:07:41;30.20;99.90
13659;DHT22;6902;52.158;11.574;2023-06-22T12:10:10;30.30;99.90
13659;DHT22;6902;52.158;11.574;2023-06-22T12:17:40;30.10;99.90
13659;DHT22;6902;52.158;11.574;2023-06-22T12:20:09;30.10;99.90
13659;DHT22;6902;52.158;11.574;2023-06-22T12:22:38;29.90;99.90
13659;DHT22;6902;52.158;11.574;2023-06-22T12:25:07;30.00;99.90
13659;DHT22;6902;52.158;11.574;2023-06-22T12:27:37;30.10;99.90
13659;DHT22;6902;52.158;11.574;2023-06-22T12:32:38;30.30;99.90
13659;DHT22;6902;52.158;11.574;2023-06-22T12:35:07;30.30;99.90
13659;DHT22;6902;52.158;11.574;2023-06-22T12:37:40;30.20;99.90
13659;DHT22;6902;52.158;11.574;2023-06-22T12:40:09;30.10;99.90
13659;DHT22;6902;52.158;11.574;2023-06-22T12:42:39;30.20;99.90
13659;DHT22;6902;52.158;11.574;2023-06-22T12:45:09;30.10;99.90
13659;DHT22;6902;52.158;11.574;2023-06-22T12:47:40;30.10;99.90
13659;DHT22;6902;52.158;11.574;2023-06-22T12:50:09;30.00;99.90
13659;DHT22;6902;52.158;11.574;2023-06-22T12:52:39;30.00;99.90
13659;DHT22;6902;52.158;11.574;2023-06-22T12:55:08;29.80;99.90
13659;DHT22;6902;52.158;11.574;2023-06-22T12:57:37;29.90;99.90
13659;DHT22;6902;52.158;11.574;2023-06-22T13:00:07;29.80;99.90
13659;DHT22;6902;52.158;11.574;2023-06-22T13:05:09;30.00;99.90
13659;DHT22;6902;52.158;11.574;2023-06-22T13:07:37;30.50;99.90
13659;DHT22;6902;52.158;11.574;2023-06-22T13:10:08;30.00;99.90
13659;DHT22;6902;52.158;11.574;2023-06-22T13:12:36;30.00;99.90
13659;DHT22;6902;52.158;11.574;2023-06-22T13:15:06;30.00;99.90
13659;DHT22;6902;52.158;11.574;2023-06-22T13:17:35;30.00;99.90
13659;DHT22;6902;52.158;11.574;2023-06-22T13:20:05;29.90;99.90
13659;DHT22;6902;52.158;11.574;2023-06-22T13:22:37;29.90;99.90
13659;DHT22;6902;52.158;11.574;2023-06-22T13:25:10;29.90;99.90
13659;DHT22;6902;52.158;11.574;2023-06-22T13:27:40;29.90;99.90
13659;DHT22;6902;52.158;11.574;2023-06-22T13:30:10;30.00;99.90
13659;DHT22;6902;52.158;11.574;2023-06-22T13:32:38;30.00;99.90
13659;DHT22;6902;52.158;11.574;2023-06-22T13:35:08;29.90;99.90
13659;DHT22;6902;52.158;11.574;2023-06-22T13:37:40;30.00;99.90
13659;DHT22;6902;52.158;11.574;2023-06-22T13:40:09;29.90;99.90
13659;DHT22;6902;52.158;11.574;2023-06-22T13:42:38;29.80;99.90
13659;DHT22;6902;52.158;11.574;2023-06-22T13:45:08;29.80;99.90
13659;DHT22;6902;52.158;11.574;2023-06-22T13:47:37;29.70;99.90
13659;DHT22;6902;52.158;11.574;2023-06-22T13:50:07;29.70;99.90
13659;DHT22;6902;52.158;11.574;2023-06-22T13:52:41;29.60;99.90
13659;DHT22;6902;52.158;11.574;2023-06-22T13:55:09;29.50;99.90
13659;DHT22;6902;52.158;11.574;2023-06-22T13:57:40;29.40;99.90
13659;DHT22;6902;52.158;11.574;2023-06-22T14:00:10;29.40;99.90
13659;DHT22;6902;52.158;11.574;2023-06-22T14:02:39;29.30;99.90
13659;DHT22;6902;52.158;11.574;2023-06-22T14:05:08;29.40;99.90
13659;DHT22;6902;52.158;11.574;2023-06-22T14:07:40;29.40;99.90
13659;DHT22;6902;52.158;11.574;2023-06-22T14:10:09;29.40;99.90
13659;DHT22;6902;52.158;11.574;2023-06-22T14:12:38;29.40;99.90
13659;DHT22;6902;52.158;11.574;2023-06-22T14:15:07;29.50;99.90
13659;DHT22;6902;52.158;11.574;2023-06-22T14:17:36;29.50;99.90
13659;DHT22;6902;52.158;11.574;2023-06-22T14:20:06;29.60;99.90
13659;DHT22;6902;52.158;11.574;2023-06-22T14:22:35;29.70;99.90
13659;DHT22;6902;52.158;11.574;2023-06-22T14:25:08;29.70;99.90
13659;DHT22;6902;52.158;11.574;2023-06-22T14:27:37;29.70;99.90
13659;DHT22;6902;52.158;11.574;2023-06-22T14:30:07;29.60;99.90
13659;DHT22;6902;52.158;11.574;2023-06-22T14:32:36;29.50;99.90
13659;DHT22;6902;52.158;11.574;2023-06-22T14:35:05;29.40;99.90
13659;DHT22;6902;52.158;11.574;2023-06-22T14:37:34;29.40;99.90
13659;DHT22;6902;52.158;11.574;2023-06-22T14:40:03;29.40;99.90
13659;DHT22;6902;52.158;11.574;2023-06-22T14:42:35;29.40;99.90
13659;DHT22;6902;52.158;11.574;2023-06-22T14:45:05;29.30;99.90
13659;DHT22;6902;52.158;11.574;2023-06-22T14:47:34;29.20;99.90
13659;DHT22;6902;52.158;11.574;2023-06-22T14:50:03;29.20;99.90
13659;DHT22;6902;52.158;11.574;2023-06-22T14:52:32;29.30;99.90
13659;DHT22;6902;52.158;11.574;2023-06-22T14:55:01;29.30;99.90
13659;DHT22;6902;52.158;11.574;2023-06-22T14:57:29;29.30;99.90
13659;DHT22;6902;52.158;11.574;2023-06-22T15:00:01;29.40;99.90
13659;DHT22;6902;52.158;11.574;2023-06-22T15:02:31;29.40;99.90
13659;DHT22;6902;52.158;11.574;2023-06-22T15:05:00;29.40;99.90
13659;DHT22;6902;52.158;11.574;2023-06-22T15:07:28;29.40;99.90
13659;DHT22;6902;52.158;11.574;2023-06-22T15:09:57;29.40;99.90
13659;DHT22;6902;52.158;11.574;2023-06-22T15:12:26;29.40;99.90
13659;DHT22;6902;52.158;11.574;2023-06-22T15:14:54;29.40;99.90
13659;DHT22;6902;52.158;11.574;2023-06-22T15:17:26;29.40;99.90
13659;DHT22;6902;52.158;11.574;2023-06-22T15:19:58;29.40;99.90
13659;DHT22;6902;52.158;11.574;2023-06-22T15:22:26;29.40;99.90
13659;DHT22;6902;52.158;11.574;2023-06-22T15:24:56;29.30;99.90
13659;DHT22;6902;52.158;11.574;2023-06-22T15:27:26;29.30;99.90
13659;DHT22;6902;52.158;11.574;2023-06-22T15:29:55;29.30;99.90
13659;DHT22;6902;52.158;11.574;2023-06-22T15:32:26;29.20;99.90
13659;DHT22;6902;52.158;11.574;2023-06-22T15:34:55;29.20;99.90
13659;DHT22;6902;52.158;11.574;2023-06-22T15:37:24;29.20;99.90
13659;DHT22;6902;52.158;11.574;2023-06-22T15:39:53;29.10;99.90
13659;DHT22;6902;52.158;11.574;2023-06-22T15:42:22;29.00;99.90
13659;DHT22;6902;52.158;11.574;2023-06-22T15:44:50;28.90;99.90
13659;DHT22;6902;52.158;11.574;2023-06-22T15:47:19;28.90;99.90
13659;DHT22;6902;52.158;11.574;2023-06-22T15:49:51;28.80;99.90
13659;DHT22;6902;52.158;11.574;2023-06-22T15:52:19;28.80;99.90
13659;DHT22;6902;52.158;11.574;2023-06-22T15:54:48;28.80;99.90
13659;DHT22;6902;52.158;11.574;2023-06-22T15:57:19;28.80;99.90
13659;DHT22;6902;52.158;11.574;2023-06-22T15:59:48;28.70;99.90
13659;DHT22;6902;52.158;11.574;2023-06-22T16:02:17;28.70;99.90
13659;DHT22;6902;52.158;11.574;2023-06-22T16:04:45;28.70;99.90
13659;DHT22;6902;52.158;11.574;2023-06-22T16:07:17;28.70;99.90
13659;DHT22;6902;52.158;11.574;2023-06-22T16:09:45;28.70;99.90
13659;DHT22;6902;52.158;11.574;2023-06-22T16:12:14;28.70;99.90
13659;DHT22;6902;52.158;11.574;2023-06-22T16:14:43;28.70;99.90
13659;DHT22;6902;52.158;11.574;2023-06-22T16:17:12;28.70;99.90
13659;DHT22;6902;52.158;11.574;2023-06-22T16:19:40;28.60;99.90
13659;DHT22;6902;52.158;11.574;2023-06-22T16:22:12;28.60;99.90
13659;DHT22;6902;52.158;11.574;2023-06-22T16:24:43;28.60;99.90
13659;DHT22;6902;52.158;11.574;2023-06-22T16:27:12;28.60;99.90
13659;DHT22;6902;52.158;11.574;2023-06-22T16:29:41;28.50;99.90
13659;DHT22;6902;52.158;11.574;2023-06-22T16:32:10;28.40;99.90
13659;DHT22;6902;52.158;11.574;2023-06-22T16:34:39;28.40;99.90
13659;DHT22;6902;52.158;11.574;2023-06-22T16:37:08;28.40;99.90
13659;DHT22;6902;52.158;11.574;2023-06-22T16:39:36;28.30;99.90
13659;DHT22;6902;52.158;11.574;2023-06-22T16:42:09;28.20;99.90
13659;DHT22;6902;52.158;11.574;2023-06-22T16:44:38;28.10;99.90
13659;DHT22;6902;52.158;11.574;2023-06-22T16:47:06;28.10;99.90
13659;DHT22;6902;52.158;11.574;2023-06-22T16:49:35;28.00;99.90
13659;DHT22;6902;52.158;11.574;2023-06-22T16:52:04;27.90;99.90
13659;DHT22;6902;52.158;11.574;2023-06-22T16:54:33;27.80;99.90
13659;DHT22;6902;52.158;11.574;2023-06-22T16:57:02;27.80;99.90
13659;DHT22;6902;52.158;11.574;2023-06-22T16:59:33;27.80;99.90
13659;DHT22;6902;52.158;11.574;2023-06-22T17:02:02;27.60;99.90
13659;DHT22;6902;52.158;11.574;2023-06-22T17:04:33;27.60;99.90
13659;DHT22;6902;52.158;11.574;2023-06-22T17:07:08;27.60;99.90
13659;DHT22;6902;52.158;11.574;2023-06-22T17:09:38;27.50;99.90
13659;DHT22;6902;52.158;11.574;2023-06-22T17:12:09;27.40;99.90
13659;DHT22;6902;52.158;11.574;2023-06-22T17:14:41;27.40;99.90
13659;DHT22;6902;52.158;11.574;2023-06-22T17:17:11;27.40;99.90
13659;DHT22;6902;52.158;11.574;2023-06-22T17:19:41;27.30;99.90
13659;DHT22;6902;52.158;11.574;2023-06-22T17:22:10;27.20;99.90
13659;DHT22;6902;52.158;11.574;2023-06-22T17:24:40;27.20;99.90
13659;DHT22;6902;52.158;11.574;2023-06-22T17:27:09;27.10;99.90
13659;DHT22;6902;52.158;11.574;2023-06-22T17:29:40;27.00;99.90
13659;DHT22;6902;52.158;11.574;2023-06-22T17:32:09;27.00;99.90
13659;DHT22;6902;52.158;11.574;2023-06-22T17:34:39;26.90;99.90
13659;DHT22;6902;52.158;11.574;2023-06-22T17:37:07;26.90;99.90
13659;DHT22;6902;52.158;11.574;2023-06-22T17:39:36;26.80;99.90
13659;DHT22;6902;52.158;11.574;2023-06-22T17:42:08;26.70;99.90
13659;DHT22;6902;52.158;11.574;2023-06-22T17:44:37;26.60;99.90
13659;DHT22;6902;52.158;11.574;2023-06-22T17:47:10;26.40;99.90
13659;DHT22;6902;52.158;11.574;2023-06-22T17:49:38;26.30;99.90
13659;DHT22;6902;52.158;11.574;2023-06-22T17:52:16;26.00;99.90
13659;DHT22;6902;52.158;11.574;2023-06-22T17:54:44;25.70;99.90
13659;DHT22;6902;52.158;11.574;2023-06-22T17:57:17;25.20;99.90
13659;DHT22;6902;52.158;11.574;2023-06-22T17:59:49;24.60;99.90
13659;DHT22;6902;52.158;11.574;2023-06-22T18:02:23;24.00;99.90
13659;DHT22;6902;52.158;11.574;2023-06-22T18:09:57;22.40;99.90
13659;DHT22;6902;52.158;11.574;2023-06-22T18:12:27;22.20;99.90
13659;DHT22;6902;52.158;11.574;2023-06-22T18:14:57;22.10;99.90
13659;DHT22;6902;52.158;11.574;2023-06-22T18:17:28;21.80;99.90
13659;DHT22;6902;52.158;11.574;2023-06-22T18:32:24;20.70;99.90
13659;DHT22;6902;52.158;11.574;2023-06-22T18:34:55;20.70;99.90
13659;DHT22;6902;52.158;11.574;2023-06-22T18:37:24;20.30;99.90
13659;DHT22;6902;52.158;11.574;2023-06-22T19:35:36;19.40;99.90
13659;DHT22;6902;52.158;11.574;2023-06-22T19:38:07;19.40;99.90
13659;DHT22;6902;52.158;11.574;2023-06-22T19:40:39;19.40;99.90
13659;DHT22;6902;52.158;11.574;2023-06-22T19:43:07;19.40;99.90
13659;DHT22;6902;52.158;11.574;2023-06-22T19:45:38;19.40;99.90
13659;DHT22;6902;52.158;11.574;2023-06-22T19:48:08;19.50;99.90
13659;DHT22;6902;52.158;11.574;2023-06-22T19:50:41;19.50;99.90
13659;DHT22;6902;52.158;11.574;2023-06-22T19:53:12;19.60;99.90
13659;DHT22;6902;52.158;11.574;2023-06-22T19:55:42;19.60;99.90
13659;DHT22;6902;52.158;11.574;2023-06-22T19:58:11;19.70;99.90
13659;DHT22;6902;52.158;11.574;2023-06-22T20:00:40;19.80;99.90
13659;DHT22;6902;52.158;11.574;2023-06-22T20:05:43;19.70;99.90
13659;DHT22;6902;52.158;11.574;2023-06-22T20:08:15;19.60;99.90
13659;DHT22;6902;52.158;11.574;2023-06-22T20:56:02;19.00;99.90
13659;DHT22;6902;52.158;11.574;2023-06-22T20:58:30;19.00;99.90
13659;DHT22;6902;52.158;11.574;2023-06-22T21:00:59;19.00;99.90
13659;DHT22;6902;52.158;11.574;2023-06-22T21:03:28;19.00;99.90
13659;DHT22;6902;52.158;11.574;2023-06-22T21:05:57;18.90;99.90
13659;DHT22;6902;52.158;11.574;2023-06-22T21:08:28;18.90;99.90
13659;DHT22;6902;52.158;11.574;2023-06-22T21:10:57;18.90;99.90
13659;DHT22;6902;52.158;11.574;2023-06-22T21:13:26;18.90;99.90
13659;DHT22;6902;52.158;11.574;2023-06-22T21:15:55;18.80;99.90
13659;DHT22;6902;52.158;11.574;2023-06-22T21:18:24;18.80;99.90
13659;DHT22;6902;52.158;11.574;2023-06-22T21:20:53;18.80;99.90
13659;DHT22;6902;52.158;11.574;2023-06-22T21:25:53;18.70;99.90
13659;DHT22;6902;52.158;11.574;2023-06-22T21:28:22;18.70;99.90
13659;DHT22;6902;52.158;11.574;2023-06-22T21:30:51;18.70;99.90
13659;DHT22;6902;52.158;11.574;2023-06-22T21:33:20;18.80;99.90
13659;DHT22;6902;52.158;11.574;2023-06-22T21:35:48;18.80;99.90
13659;DHT22;6902;52.158;11.574;2023-06-22T21:38:17;18.80;99.90
13659;DHT22;6902;52.158;11.574;2023-06-22T21:40:46;18.80;99.90
13659;DHT22;6902;52.158;11.574;2023-06-22T21:43:17;18.90;99.90
13659;DHT22;6902;52.158;11.574;2023-06-22T21:45:46;18.90;99.90
13659;DHT22;6902;52.158;11.574;2023-06-22T21:48:15;18.90;99.90
13659;DHT22;6902;52.158;11.574;2023-06-22T21:50:44;18.90;99.90
13659;DHT22;6902;52.158;11.574;2023-06-22T21:53:13;18.90;99.90
13659;DHT22;6902;52.158;11.574;2023-06-22T21:55:42;18.90;99.90
13659;DHT22;6902;52.158;11.574;2023-06-22T21:58:10;18.90;99.90
13659;DHT22;6902;52.158;11.574;2023-06-22T22:00:42;18.90;99.90
13659;DHT22;6902;52.158;11.574;2023-06-22T22:03:11;18.90;99.90
13659;DHT22;6902;52.158;11.574;2023-06-22T22:05:40;19.00;99.90
13659;DHT22;6902;52.158;11.574;2023-06-22T22:08:09;18.90;99.90
13659;DHT22;6902;52.158;11.574;2023-06-22T22:10:38;18.90;99.90
13659;DHT22;6902;52.158;11.574;2023-06-22T22:13:06;19.00;99.90
13659;DHT22;6902;52.158;11.574;2023-06-22T22:15:36;18.90;99.90
13659;DHT22;6902;52.158;11.574;2023-06-22T22:18:10;18.90;99.90
13659;DHT22;6902;52.158;11.574;2023-06-22T22:20:39;18.90;99.90
13659;DHT22;6902;52.158;11.574;2023-06-22T22:23:08;18.90;99.90
13659;DHT22;6902;52.158;11.574;2023-06-22T22:25:37;19.00;99.90
13659;DHT22;6902;52.158;11.574;2023-06-22T22:28:05;18.90;99.90
13659;DHT22;6902;52.158;11.574;2023-06-22T22:30:34;19.00;99.90
13659;DHT22;6902;52.158;11.574;2023-06-22T22:33:03;19.00;99.90
13659;DHT22;6902;52.158;11.574;2023-06-22T22:35:34;19.00;99.90
13659;DHT22;6902;52.158;11.574;2023-06-22T22:38:03;19.00;99.90
13659;DHT22;6902;52.158;11.574;2023-06-22T22:40:32;19.00;99.90
13659;DHT22;6902;52.158;11.574;2023-06-22T22:43:00;19.00;99.90
13659;DHT22;6902;52.158;11.574;2023-06-22T22:45:29;19.00;99.90
13659;DHT22;6902;52.158;11.574;2023-06-22T22:47:58;18.90;99.90
13659;DHT22;6902;52.158;11.574;2023-06-22T22:50:26;19.00;99.90
13659;DHT22;6902;52.158;11.574;2023-06-22T22:52:58;18.90;99.90
13659;DHT22;6902;52.158;11.574;2023-06-22T22:55:29;19.00;99.90
13659;DHT22;6902;52.158;11.574;2023-06-22T22:57:58;18.90;99.90
13659;DHT22;6902;52.158;11.574;2023-06-22T23:00:27;18.90;99.90
13659;DHT22;6902;52.158;11.574;2023-06-22T23:02:55;18.90;99.90
13659;DHT22;6902;52.158;11.574;2023-06-22T23:05:27;18.90;99.90
13659;DHT22;6902;52.158;11.574;2023-06-22T23:07:58;18.90;99.90
13659;DHT22;6902;52.158;11.574;2023-06-22T23:10:29;19.00;99.90
13659;DHT22;6902;52.158;11.574;2023-06-22T23:12:58;19.00;99.90
13659;DHT22;6902;52.158;11.574;2023-06-22T23:15:28;19.00;99.90
13659;DHT22;6902;52.158;11.574;2023-06-22T23:17:56;19.00;99.90
13659;DHT22;6902;52.158;11.574;2023-06-22T23:20:25;19.00;99.90
13659;DHT22;6902;52.158;11.574;2023-06-22T23:22:55;19.10;99.90
13659;DHT22;6902;52.158;11.574;2023-06-22T23:25:28;19.10;99.90
13659;DHT22;6902;52.158;11.574;2023-06-22T23:28:01;19.20;99.90
13659;DHT22;6902;52.158;11.574;2023-06-22T23:30:32;19.10;99.90
13659;DHT22;6902;52.158;11.574;2023-06-22T23:33:01;19.20;99.90
13659;DHT22;6902;52.158;11.574;2023-06-22T23:35:30;19.10;99.90
13659;DHT22;6902;52.158;11.574;2023-06-22T23:37:59;19.10;99.90
13659;DHT22;6902;52.158;11.574;2023-06-22T23:40:30;19.10;99.90
13659;DHT22;6902;52.158;11.574;2023-06-22T23:43:02;19.10;99.90
13659;DHT22;6902;52.158;11.574;2023-06-22T23:45:34;19.10;99.90
13659;DHT22;6902;52.158;11.574;2023-06-22T23:48:03;19.10;99.90
13659;DHT22;6902;52.158;11.574;2023-06-22T23:50:32;19.10;99.90
13659;DHT22;6902;52.158;11.574;2023-06-22T23:53:01;19.10;99.90
13659;DHT22;6902;52.158;11.574;2023-06-22T23:55:32;19.10;99.90
13659;DHT22;6902;52.158;11.574;2023-06-22T23:58:02;19.10;99.90
